createdAt,value
2018-12-27T00:00:30.191Z,84.81
2018-12-27T00:05:44.180Z,84.02
2018-12-27T00:16:34.603Z,84.02
2018-12-27T00:21:48.585Z,83.68
2018-12-27T00:26:56.862Z,83.02
2018-12-27T00:32:10.963Z,85.10
2018-12-27T00:37:20.006Z,85.52
2018-12-27T00:42:27.593Z,86.41
2018-12-27T00:47:41.706Z,87.11
2018-12-27T00:52:57.539Z,87.37
2018-12-27T00:58:06.481Z,87.58
2018-12-27T01:03:20.617Z,87.39
2018-12-27T01:08:28.673Z,86.72
2018-12-27T01:19:44.145Z,85.81
2018-12-27T01:24:51.512Z,84.69
2018-12-27T01:30:05.635Z,85.65
2018-12-27T01:35:13.915Z,86.43
2018-12-27T01:40:28.031Z,86.84
2018-12-27T01:45:36.545Z,86.36
2018-12-27T01:57:26.689Z,85.16
2018-12-27T02:02:34.646Z,84.94
2018-12-27T02:07:48.796Z,84.81
2018-12-27T02:12:56.835Z,85.60
2018-12-27T02:18:10.987Z,86.33
2018-12-27T02:23:17.959Z,85.43
2018-12-27T02:28:32.090Z,85.65
2018-12-27T02:34:04.200Z,86.46
2018-12-27T02:45:44.242Z,86.67
2018-12-27T02:50:58.393Z,88.41
2018-12-27T02:56:11.802Z,87.59
2018-12-27T03:01:18.484Z,88.00
2018-12-27T03:06:32.600Z,88.43
2018-12-27T03:11:40.597Z,88.60
2018-12-27T03:16:54.828Z,88.49
2018-12-27T03:22:03.179Z,88.55
2018-12-27T03:27:17.293Z,88.11
2018-12-27T03:32:24.982Z,87.13
2018-12-27T03:37:39.071Z,86.76
2018-12-27T03:42:52.117Z,87.07
2018-12-27T03:47:59.559Z,86.99
2018-12-27T03:52:54.371Z,86.41
2018-12-27T03:58:08.474Z,86.05
2018-12-27T04:03:17.198Z,85.36
2018-12-27T04:20:35.635Z,84.08
2018-12-27T04:25:51.389Z,84.04
2018-12-27T04:31:05.812Z,83.72
2018-12-27T04:36:14.409Z,83.55
2018-12-27T04:41:29.366Z,83.33
2018-12-27T04:46:43.355Z,83.21
2018-12-27T04:51:50.457Z,82.86
2018-12-27T04:57:04.446Z,83.80
2018-12-27T05:02:20.905Z,82.78
2018-12-27T05:07:15.515Z,83.14
2018-12-27T05:12:29.527Z,83.32
2018-12-27T05:17:24.153Z,83.65
2018-12-27T05:22:18.790Z,83.66
2018-12-27T05:27:32.777Z,83.71
2018-12-27T05:32:40.928Z,83.60
2018-12-27T05:37:54.974Z,83.66
2018-12-27T05:43:02.409Z,83.44
2018-12-27T05:48:16.404Z,83.77
2018-12-27T05:58:40.747Z,82.90
2018-12-27T06:03:35.383Z,83.45
2018-12-27T06:08:49.343Z,82.25
2018-12-27T06:20:22.910Z,82.29
2018-12-27T06:25:30.973Z,81.65
2018-12-27T06:30:25.601Z,82.37
2018-12-27T06:41:53.832Z,84.45
2018-12-27T06:47:02.273Z,84.80
2018-12-27T06:52:16.327Z,83.79
2018-12-27T06:57:10.973Z,82.58
2018-12-27T07:02:24.968Z,81.59
2018-12-27T07:07:38.986Z,82.25
2018-12-27T07:12:47.088Z,83.19
2018-12-27T07:18:01.068Z,82.95
2018-12-27T07:23:09.047Z,82.46
2018-12-27T07:28:23.033Z,83.06
2018-12-27T07:33:39.357Z,82.12
2018-12-27T07:38:33.978Z,82.03
2018-12-27T07:49:04.611Z,82.00
2018-12-27T07:54:18.657Z,81.52
2018-12-27T07:59:32.684Z,79.99
2018-12-27T08:04:39.509Z,80.90
2018-12-27T08:09:53.491Z,80.40
2018-12-27T08:15:01.321Z,79.94
2018-12-27T08:20:15.299Z,79.77
2018-12-27T08:25:23.065Z,79.85
2018-12-27T08:31:24.071Z,79.54
2018-12-27T08:36:38.070Z,78.53
2018-12-27T08:42:09.867Z,78.88
2018-12-27T08:47:17.688Z,78.44
2018-12-27T08:52:31.701Z,78.07
2018-12-27T08:57:44.869Z,77.56
2018-12-27T09:02:52.919Z,77.53
2018-12-27T09:08:06.919Z,77.36
2018-12-27T09:13:14.683Z,77.14
2018-12-27T09:18:28.678Z,76.96
2018-12-27T09:23:37.961Z,76.80
2018-12-27T09:28:32.594Z,77.01
2018-12-27T09:33:46.581Z,77.49
2018-12-27T09:44:31.516Z,76.97
2018-12-27T09:49:26.136Z,77.51
2018-12-27T09:54:40.117Z,77.76
2018-12-27T09:59:47.666Z,77.40
2018-12-27T10:05:22.394Z,77.99
2018-12-27T10:10:29.027Z,78.33
2018-12-27T10:16:26.920Z,78.12
2018-12-27T10:21:41.005Z,77.55
2018-12-27T10:26:48.398Z,77.61
2018-12-27T10:32:02.501Z,77.92
2018-12-27T10:37:16.916Z,77.14
2018-12-27T10:42:24.215Z,77.66
2018-12-27T10:47:32.424Z,76.68
2018-12-27T10:52:40.382Z,76.83
2018-12-27T10:57:54.367Z,76.52
2018-12-27T11:03:01.898Z,76.96
2018-12-27T11:08:15.878Z,76.90
2018-12-27T11:13:24.531Z,78.34
2018-12-27T11:18:19.290Z,78.43
2018-12-27T11:23:13.891Z,78.71
2018-12-27T11:39:54.631Z,77.20
2018-12-27T11:45:07.384Z,76.53
2018-12-27T11:50:15.682Z,76.32
2018-12-27T11:55:29.667Z,75.44
2018-12-27T12:00:24.401Z,76.00
2018-12-27T12:05:38.467Z,75.49
2018-12-27T12:10:52.453Z,75.03
2018-12-27T12:16:06.263Z,74.51
2018-12-27T12:21:00.900Z,75.48
2018-12-27T12:26:14.898Z,74.61
2018-12-27T12:31:23.259Z,75.35
2018-12-27T12:36:37.310Z,74.54
2018-12-27T12:41:44.983Z,75.45
2018-12-27T12:46:53.489Z,76.33
2018-12-27T12:52:06.898Z,76.48
2018-12-27T12:57:14.574Z,75.99
2018-12-27T13:02:31.346Z,74.91
2018-12-27T13:13:21.912Z,76.32
2018-12-27T13:18:54.247Z,76.28
2018-12-27T13:24:02.657Z,75.80
2018-12-27T13:29:16.702Z,75.60
2018-12-27T13:34:24.976Z,74.58
2018-12-27T13:39:38.948Z,74.48
2018-12-27T13:44:52.428Z,73.96
2018-12-27T13:49:59.999Z,74.75
2018-12-27T13:55:18.713Z,74.37
2018-12-27T14:00:32.707Z,74.17
2018-12-27T14:05:40.443Z,74.47
2018-12-27T14:10:49.193Z,74.63
2018-12-27T14:15:56.498Z,74.15
2018-12-27T14:20:51.116Z,73.97
2018-12-27T14:32:03.730Z,73.51
2018-12-27T14:36:58.378Z,75.33
2018-12-27T14:42:21.892Z,75.67
2018-12-27T14:47:28.472Z,75.42
2018-12-27T15:04:19.146Z,76.12
2018-12-27T15:09:30.558Z,77.66
2018-12-27T15:14:25.257Z,77.94
2018-12-27T15:19:19.879Z,78.32
2018-12-27T15:24:14.505Z,78.08
2018-12-27T15:29:09.139Z,78.90
2018-12-27T15:34:03.748Z,79.83
2018-12-27T15:38:58.384Z,80.31
2018-12-27T15:43:52.976Z,79.49
2018-12-27T15:48:47.585Z,79.60
2018-12-27T15:53:42.280Z,78.71
2018-12-27T15:58:36.902Z,78.23
2018-12-27T16:03:31.532Z,78.62
2018-12-27T16:08:26.128Z,79.33
2018-12-27T16:13:41.607Z,79.46
2018-12-27T16:18:55.612Z,79.35
2018-12-27T16:29:45.964Z,80.48
2018-12-27T16:41:03.298Z,80.49
2018-12-27T16:46:10.553Z,80.16
2018-12-27T16:51:27.369Z,80.13
2018-12-27T16:56:41.750Z,80.29
2018-12-27T17:01:36.368Z,80.30
2018-12-27T17:06:50.347Z,81.24
2018-12-27T17:12:04.353Z,82.08
2018-12-27T17:17:11.757Z,81.76
2018-12-27T17:28:28.368Z,81.14
2018-12-27T17:33:36.710Z,80.76
2018-12-27T17:39:26.462Z,80.32
2018-12-27T17:44:34.696Z,79.42
2018-12-27T17:55:37.867Z,79.01
2018-12-27T18:00:51.243Z,79.00
2018-12-27T18:06:23.412Z,79.51
2018-12-27T18:11:18.037Z,79.83
2018-12-27T18:16:50.026Z,80.16
2018-12-27T18:22:04.013Z,79.93
2018-12-27T18:27:11.291Z,80.37
2018-12-27T18:32:43.011Z,79.67
2018-12-27T18:37:49.556Z,80.00
2018-12-27T18:42:56.165Z,79.73
2018-12-27T18:47:50.799Z,80.31
2018-12-27T18:59:10.784Z,80.12
2018-12-27T19:04:24.801Z,80.44
2018-12-27T19:09:37.679Z,80.24
2018-12-27T19:14:45.252Z,79.96
2018-12-27T19:20:36.717Z,79.87
2018-12-27T19:25:44.471Z,80.30
2018-12-27T19:30:58.520Z,79.67
2018-12-27T19:36:06.119Z,80.05
2018-12-27T19:41:00.755Z,80.56
2018-12-27T19:46:14.742Z,80.34
2018-12-27T19:51:22.767Z,80.55
2018-12-27T19:56:36.761Z,80.63
2018-12-27T20:01:44.742Z,80.68
2018-12-27T20:06:58.719Z,80.65
2018-12-27T20:11:53.422Z,80.77
2018-12-27T20:18:03.666Z,81.34
2018-12-27T20:23:17.311Z,81.21
2018-12-27T20:28:24.906Z,81.75
2018-12-27T20:33:38.896Z,81.74
2018-12-27T20:38:48.079Z,80.90
2018-12-27T20:43:54.852Z,81.06
2018-12-27T20:49:26.893Z,81.06
2018-12-27T20:54:34.914Z,81.30
2018-12-27T21:00:35.757Z,81.37
2018-12-27T21:06:07.486Z,81.03
2018-12-27T21:11:15.187Z,81.74
2018-12-27T21:16:29.232Z,82.00
2018-12-27T21:21:36.906Z,81.90
2018-12-27T21:26:50.945Z,81.38
2018-12-27T21:31:58.211Z,80.83
2018-12-27T21:37:12.206Z,80.97
2018-12-27T21:42:21.090Z,80.68
2018-12-27T21:47:35.198Z,80.98
2018-12-27T21:52:42.630Z,80.83
2018-12-27T21:57:56.640Z,80.98
2018-12-27T22:03:13.131Z,80.87
2018-12-27T22:08:28.298Z,81.14
2018-12-27T22:13:37.205Z,80.76
2018-12-27T22:18:45.300Z,80.57
2018-12-27T22:23:59.277Z,80.59
2018-12-27T22:29:06.756Z,80.09
2018-12-27T22:34:20.829Z,79.54
2018-12-27T22:39:28.516Z,79.61
2018-12-27T22:44:35.744Z,80.09
2018-12-27T22:49:49.476Z,79.94
2018-12-27T22:55:06.015Z,79.70
2018-12-27T23:00:17.283Z,79.45
2018-12-27T23:05:25.189Z,79.56
2018-12-27T23:10:39.158Z,79.39
2018-12-27T23:15:45.972Z,79.50
2018-12-27T23:20:59.953Z,79.49
2018-12-27T23:26:13.404Z,79.54
2018-12-27T23:31:21.459Z,79.53
2018-12-27T23:36:35.443Z,79.82
2018-12-27T23:41:30.076Z,80.08
2018-12-27T23:47:40.371Z,80.21
2018-12-27T23:52:54.354Z,80.22
2018-12-27T23:57:48.989Z,80.14
